createdAt,value
2022-12-01T00:01:20.282Z,30.53
2022-12-01T00:03:47.457Z,22.07
2022-12-01T00:06:18.408Z,22.50
2022-12-01T00:09:06.201Z,23.60
2022-12-01T00:11:35.166Z,24.20
2022-12-01T00:14:02.251Z,29.07
2022-12-01T00:16:29.648Z,26.67
2022-12-01T00:18:57.350Z,25.23
2022-12-01T00:21:26.570Z,23.33
2022-12-01T00:23:56.589Z,24.07
2022-12-01T00:26:24.592Z,27.90
2022-12-01T00:28:53.905Z,22.37
2022-12-01T00:31:21.533Z,27.27
2022-12-01T00:33:49.766Z,24.97
2022-12-01T00:36:16.722Z,27.23
2022-12-01T00:38:43.621Z,25.17
2022-12-01T00:41:10.848Z,26.83
2022-12-01T00:43:37.769Z,25.53
2022-12-01T00:46:04.928Z,26.77
2022-12-01T00:48:31.867Z,29.23
2022-12-01T00:50:59.413Z,24.80
2022-12-01T00:53:26.313Z,25.73
2022-12-01T00:55:55.845Z,26.30
2022-12-01T00:58:23.720Z,26.07
2022-12-01T01:00:58.847Z,23.57
2022-12-01T01:03:27.117Z,28.63
2022-12-01T01:05:54.339Z,26.67
2022-12-01T01:08:21.375Z,27.90
2022-12-01T01:10:49.430Z,24.47
2022-12-01T01:13:16.916Z,24.20
2022-12-01T01:15:43.938Z,27.57
2022-12-01T01:18:12.628Z,27.27
2022-12-01T01:20:39.761Z,26.60
2022-12-01T01:23:06.765Z,28.47
2022-12-01T01:25:33.891Z,26.80
2022-12-01T01:28:00.827Z,28.63
2022-12-01T01:30:28.020Z,30.00
2022-12-01T01:32:55.310Z,25.83
2022-12-01T01:35:22.270Z,29.10
2022-12-01T01:37:50.929Z,26.87
2022-12-01T01:40:18.384Z,30.57
2022-12-01T01:42:45.333Z,28.00
2022-12-01T01:45:27.647Z,28.07
2022-12-01T01:47:57.578Z,28.57
2022-12-01T01:50:28.408Z,27.03
2022-12-01T01:53:05.090Z,24.77
2022-12-01T01:55:34.624Z,29.97
2022-12-01T01:58:05.051Z,26.87
2022-12-01T02:00:32.009Z,32.77
2022-12-01T02:03:00.425Z,27.60
2022-12-01T02:05:32.608Z,24.97
2022-12-01T02:08:02.134Z,28.93
2022-12-01T02:11:18.027Z,23.10
2022-12-01T02:13:47.743Z,24.57
2022-12-01T02:16:35.235Z,26.20
2022-12-01T02:19:34.280Z,24.70
2022-12-01T02:22:30.363Z,25.77
2022-12-01T02:25:21.300Z,23.60
2022-12-01T02:28:29.418Z,25.33
2022-12-01T02:31:03.250Z,32.33
2022-12-01T02:33:41.794Z,26.83
2022-12-01T02:36:46.450Z,25.47
2022-12-01T02:39:35.822Z,27.33
2022-12-01T02:42:39.802Z,26.80
2022-12-01T02:45:12.072Z,24.20
2022-12-01T02:47:42.093Z,22.37
2022-12-01T02:50:11.152Z,26.50
2022-12-01T02:52:40.265Z,27.43
2022-12-01T02:55:07.484Z,29.17
2022-12-01T02:57:34.373Z,26.77
2022-12-01T03:00:02.160Z,29.50
2022-12-01T03:03:13.384Z,31.50
2022-12-01T03:05:58.535Z,29.07
2022-12-01T03:09:05.986Z,24.03
2022-12-01T03:11:46.428Z,22.60
2022-12-01T03:14:51.433Z,26.37
2022-12-01T03:17:27.300Z,26.03
2022-12-01T03:20:03.842Z,26.47
2022-12-01T03:22:41.465Z,27.10
2022-12-01T03:25:11.348Z,24.17
2022-12-01T03:28:00.566Z,24.80
2022-12-01T03:30:35.866Z,25.87
2022-12-01T03:33:09.927Z,24.27
2022-12-01T03:36:11.863Z,25.53
2022-12-01T03:38:42.208Z,27.23
2022-12-01T03:41:21.232Z,27.30
2022-12-01T03:43:56.993Z,24.13
2022-12-01T03:46:50.810Z,27.87
2022-12-01T03:49:19.250Z,23.73
2022-12-01T03:52:14.124Z,28.40
2022-12-01T03:54:59.403Z,28.90
2022-12-01T03:57:32.492Z,21.53
2022-12-01T03:59:59.692Z,24.63
2022-12-01T04:02:28.492Z,29.37
2022-12-01T04:04:55.458Z,24.17
2022-12-01T04:07:23.520Z,25.13
2022-12-01T04:09:50.876Z,25.27
2022-12-01T04:12:29.664Z,29.17
2022-12-01T04:14:58.005Z,28.00
2022-12-01T04:17:26.251Z,30.43
2022-12-01T04:19:53.814Z,24.43
2022-12-01T04:22:21.158Z,26.53
2022-12-01T04:24:48.115Z,29.03
2022-12-01T04:27:15.280Z,26.37
2022-12-01T04:29:42.211Z,23.83
2022-12-01T04:32:09.106Z,26.20
2022-12-01T04:34:36.049Z,31.43
2022-12-01T04:37:06.177Z,33.10
2022-12-01T04:39:34.343Z,28.03
2022-12-01T04:42:01.383Z,24.67
2022-12-01T04:44:34.301Z,26.73
2022-12-01T04:47:02.853Z,30.97
2022-12-01T04:49:29.782Z,30.07
2022-12-01T04:51:56.775Z,27.17
2022-12-01T04:54:23.884Z,26.93
2022-12-01T04:56:50.844Z,28.43
2022-12-01T04:59:18.068Z,27.83
2022-12-01T05:01:46.721Z,29.30
2022-12-01T05:04:14.395Z,25.20
2022-12-01T05:06:41.353Z,25.63
2022-12-01T05:09:14.293Z,25.60
2022-12-01T05:11:44.047Z,26.40
2022-12-01T05:14:10.993Z,28.40
2022-12-01T05:16:38.140Z,29.20
2022-12-01T05:19:25.099Z,24.97
2022-12-01T05:21:52.556Z,31.40
2022-12-01T05:24:21.353Z,28.90
2022-12-01T05:26:48.417Z,30.37
2022-12-01T05:29:15.459Z,31.70
2022-12-01T05:31:42.571Z,31.73
2022-12-01T05:34:09.931Z,31.27
2022-12-01T05:36:36.876Z,32.73
2022-12-01T05:39:05.074Z,32.03
2022-12-01T05:41:32.371Z,35.93
2022-12-01T05:43:59.424Z,31.93
2022-12-01T05:46:26.384Z,33.07
2022-12-01T05:48:53.302Z,36.20
2022-12-01T05:51:20.275Z,36.57
2022-12-01T05:53:47.189Z,31.47
2022-12-01T05:56:14.122Z,34.67
2022-12-01T05:58:41.044Z,35.27
2022-12-01T06:01:08.625Z,38.03
2022-12-01T06:03:35.549Z,34.97
2022-12-01T06:06:02.637Z,40.27
2022-12-01T06:08:29.613Z,35.63
2022-12-01T06:10:56.512Z,30.80
2022-12-01T06:13:23.430Z,36.97
2022-12-01T06:15:59.484Z,32.10
2022-12-01T06:18:36.525Z,30.83
2022-12-01T06:21:05.810Z,31.33
2022-12-01T06:23:33.752Z,36.50
2022-12-01T06:26:00.672Z,36.47
2022-12-01T06:28:27.573Z,31.30
2022-12-01T06:30:59.311Z,37.50
2022-12-01T06:33:29.705Z,41.43
2022-12-01T06:36:01.721Z,62.57
2022-12-01T06:38:36.734Z,58.70
2022-12-01T06:41:05.408Z,35.57
2022-12-01T06:43:32.520Z,34.97
2022-12-01T06:46:01.942Z,32.77
2022-12-01T06:48:30.634Z,29.27
2022-12-01T06:50:59.269Z,36.03
2022-12-01T06:53:27.503Z,40.17
2022-12-01T06:56:01.398Z,31.80
2022-12-01T06:58:28.785Z,30.07
2022-12-01T07:00:58.760Z,32.00
2022-12-01T07:03:25.739Z,27.90
2022-12-01T07:06:01.270Z,30.53
2022-12-01T07:08:30.238Z,27.93
2022-12-01T07:11:07.564Z,28.90
2022-12-01T07:13:35.745Z,28.93
2022-12-01T07:16:03.550Z,33.10
2022-12-01T07:18:31.150Z,28.50
2022-12-01T07:21:07.171Z,24.70
2022-12-01T07:23:34.831Z,25.20
2022-12-01T07:26:03.604Z,27.37
2022-12-01T07:28:30.773Z,29.23
2022-12-01T07:31:27.119Z,27.97
2022-12-01T07:33:54.120Z,33.23
2022-12-01T07:36:21.117Z,38.13
2022-12-01T07:38:48.000Z,31.50
2022-12-01T07:41:21.233Z,28.90
2022-12-01T07:43:50.962Z,31.13
2022-12-01T07:46:23.807Z,31.73
2022-12-01T07:48:52.194Z,32.23
2022-12-01T07:51:20.032Z,30.70
2022-12-01T07:53:49.521Z,59.43
2022-12-01T07:56:18.244Z,42.40
2022-12-01T07:58:45.200Z,30.60
2022-12-01T08:01:16.115Z,30.00
2022-12-01T08:03:43.774Z,34.47
2022-12-01T08:06:11.690Z,36.13
2022-12-01T08:08:41.639Z,34.37
2022-12-01T08:11:14.069Z,33.97
2022-12-01T08:13:43.544Z,38.40
2022-12-01T08:16:17.468Z,29.43
2022-12-01T08:18:46.414Z,30.67
2022-12-01T08:21:20.196Z,30.90
2022-12-01T08:23:54.995Z,35.30
2022-12-01T08:26:28.683Z,36.40
2022-12-01T08:28:57.961Z,38.43
2022-12-01T08:31:37.755Z,36.33
2022-12-01T08:34:08.255Z,36.37
2022-12-01T08:36:36.127Z,41.50
2022-12-01T08:39:10.008Z,31.53
2022-12-01T08:41:39.242Z,48.53
2022-12-01T08:44:07.138Z,44.33
2022-12-01T08:46:35.732Z,35.33
2022-12-01T08:49:12.600Z,41.60
2022-12-01T08:51:44.987Z,34.87
2022-12-01T08:54:16.370Z,35.47
2022-12-01T08:56:46.281Z,38.63
2022-12-01T08:59:17.167Z,32.43
2022-12-01T09:01:55.132Z,40.07
2022-12-01T09:04:25.170Z,55.13
2022-12-01T09:06:58.154Z,57.07
2022-12-01T09:09:32.648Z,46.97
2022-12-01T09:11:59.527Z,47.80
2022-12-01T09:14:26.425Z,48.43
2022-12-01T09:16:53.556Z,62.20
2022-12-01T09:19:24.719Z,61.90
2022-12-01T09:21:52.439Z,42.73
2022-12-01T09:24:23.021Z,59.57
2022-12-01T09:26:49.974Z,54.50
2022-12-01T09:29:17.562Z,56.10
2022-12-01T09:31:44.742Z,57.57
2022-12-01T09:34:18.284Z,40.40
2022-12-01T09:36:46.114Z,48.63
2022-12-01T09:39:19.018Z,50.87
2022-12-01T09:41:54.738Z,46.47
2022-12-01T09:44:39.564Z,47.50
2022-12-01T09:47:33.150Z,40.67
2022-12-01T09:50:21.911Z,55.63
2022-12-01T09:53:06.983Z,42.80
2022-12-01T09:55:35.347Z,41.93
2022-12-01T09:58:04.789Z,40.83
2022-12-01T10:00:39.993Z,39.77
2022-12-01T10:03:30.414Z,37.30
2022-12-01T10:06:26.580Z,31.60
2022-12-01T10:09:21.311Z,41.43
2022-12-01T10:11:51.233Z,35.87
2022-12-01T10:14:20.765Z,38.77
2022-12-01T10:17:06.821Z,32.50
2022-12-01T10:19:52.178Z,38.00
2022-12-01T10:22:51.644Z,40.17
2022-12-01T10:25:42.165Z,43.97
2022-12-01T10:28:40.575Z,37.13
2022-12-01T10:31:25.167Z,37.67
2022-12-01T10:34:17.151Z,39.03
2022-12-01T10:36:44.250Z,40.03
2022-12-01T10:39:20.098Z,33.80
2022-12-01T10:41:49.103Z,43.00
2022-12-01T10:44:18.815Z,37.50
2022-12-01T10:46:54.513Z,41.83
2022-12-01T10:49:40.605Z,111.47
2022-12-01T10:52:39.552Z,33.93
2022-12-01T10:55:33.670Z,35.90
2022-12-01T10:58:12.273Z,36.27
2022-12-01T11:03:58.052Z,40.83
2022-12-01T11:06:30.410Z,34.17
2022-12-01T11:09:01.906Z,37.50
2022-12-01T11:11:40.591Z,45.37
2022-12-01T11:14:23.477Z,37.47
2022-12-01T11:16:54.152Z,45.40
2022-12-01T11:19:33.928Z,47.20
2022-12-01T11:22:29.118Z,39.60
2022-12-01T11:25:00.541Z,43.93
2022-12-01T11:27:46.190Z,38.23
2022-12-01T11:30:29.581Z,43.30
2022-12-01T11:33:07.922Z,45.47
2022-12-01T11:35:37.615Z,41.57
2022-12-01T11:38:28.906Z,39.53
2022-12-01T11:40:56.812Z,46.03
2022-12-01T11:43:34.748Z,53.53
2022-12-01T11:46:07.875Z,51.93
2022-12-01T11:48:36.606Z,48.77
2022-12-01T11:51:37.415Z,49.10
2022-12-01T11:54:24.501Z,50.53
2022-12-01T11:57:31.789Z,48.07
2022-12-01T11:59:47.692Z,44.83
2022-12-01T12:02:42.812Z,44.77
2022-12-01T12:06:05.948Z,43.77
2022-12-01T12:09:24.194Z,61.17
2022-12-01T12:12:27.613Z,59.00
2022-12-01T12:15:54.981Z,64.40
2022-12-01T12:19:28.948Z,57.43
2022-12-01T12:22:38.309Z,53.60
2022-12-01T12:25:47.156Z,61.40
2022-12-01T12:28:56.733Z,60.97
2022-12-01T12:31:29.025Z,53.33
2022-12-01T12:34:41.981Z,61.07
2022-12-01T12:37:31.043Z,55.60
2022-12-01T12:40:34.487Z,55.57
2022-12-01T12:43:45.863Z,53.13
2022-12-01T12:47:04.670Z,60.37
2022-12-01T12:49:46.006Z,62.73
2022-12-01T12:52:16.836Z,57.33
2022-12-01T12:54:57.258Z,62.53
2022-12-01T12:57:36.408Z,59.50
2022-12-01T13:00:14.332Z,58.53
2022-12-01T13:03:16.261Z,52.27
2022-12-01T13:06:00.714Z,48.73
2022-12-01T13:08:42.025Z,58.20
2022-12-01T13:14:45.126Z,51.80
2022-12-01T13:17:33.278Z,49.37
2022-12-01T13:20:00.270Z,43.57
2022-12-01T13:22:34.590Z,43.27
2022-12-01T13:25:04.194Z,30.63
2022-12-01T13:27:40.613Z,30.40
2022-12-01T13:30:22.405Z,35.27
2022-12-01T13:32:49.970Z,29.53
2022-12-01T13:35:29.895Z,30.07
2022-12-01T13:38:25.259Z,26.80
2022-12-01T13:41:24.415Z,29.27
2022-12-01T13:43:59.127Z,27.40
2022-12-01T13:46:52.855Z,27.40
2022-12-01T13:49:45.028Z,28.40
2022-12-01T13:52:28.080Z,30.63
2022-12-01T13:55:08.766Z,26.43
2022-12-01T13:58:14.229Z,24.97
2022-12-01T14:00:43.113Z,26.13
2022-12-01T14:03:13.099Z,22.37
2022-12-01T14:05:40.131Z,33.33
2022-12-01T14:08:23.676Z,23.93
2022-12-01T14:11:01.794Z,22.47
2022-12-01T14:13:31.701Z,23.07
2022-12-01T14:16:01.892Z,23.93
2022-12-01T14:18:40.572Z,22.87
2022-12-01T14:21:11.436Z,19.80
2022-12-01T14:24:05.028Z,17.53
2022-12-01T14:26:34.647Z,17.90
2022-12-01T14:29:01.457Z,20.47
2022-12-01T14:31:34.420Z,18.70
2022-12-01T14:34:26.731Z,24.30
2022-12-01T14:37:12.513Z,17.53
2022-12-01T14:39:44.530Z,20.73
2022-12-01T14:42:11.309Z,23.13
2022-12-01T14:44:49.085Z,29.27
2022-12-01T14:47:38.621Z,19.77
2022-12-01T14:50:20.916Z,35.90
2022-12-01T14:52:55.785Z,35.43
2022-12-01T14:55:35.987Z,25.57
2022-12-01T14:58:13.789Z,31.70
2022-12-01T15:01:00.754Z,31.57
2022-12-01T15:03:35.208Z,27.93
2022-12-01T15:06:02.238Z,25.83
2022-12-01T15:09:10.612Z,28.13
2022-12-01T15:11:26.376Z,25.97
2022-12-01T15:13:57.611Z,27.97
2022-12-01T15:16:29.273Z,24.50
2022-12-01T15:18:56.529Z,25.03
2022-12-01T15:21:30.523Z,26.73
2022-12-01T15:24:26.353Z,28.03
2022-12-01T15:27:02.115Z,33.13
2022-12-01T15:29:44.778Z,27.80
2022-12-01T15:32:17.025Z,33.90
2022-12-01T15:34:47.532Z,33.47
2022-12-01T15:37:18.075Z,39.73
2022-12-01T15:40:00.849Z,28.83
2022-12-01T15:42:39.570Z,31.73
2022-12-01T15:45:23.561Z,28.27
2022-12-01T15:47:56.767Z,37.30
2022-12-01T15:50:39.731Z,37.07
2022-12-01T15:53:34.829Z,40.20
2022-12-01T15:56:07.540Z,33.97
2022-12-01T15:58:41.618Z,37.20
2022-12-01T16:01:20.460Z,37.63
2022-12-01T16:04:04.321Z,30.40
2022-12-01T16:06:36.428Z,44.97
2022-12-01T16:09:19.144Z,34.97
2022-12-01T16:12:14.466Z,41.93
2022-12-01T16:15:00.226Z,35.53
2022-12-01T16:17:47.431Z,30.27
2022-12-01T16:20:32.192Z,34.20
2022-12-01T16:23:02.374Z,32.73
2022-12-01T16:25:40.039Z,33.93
2022-12-01T16:28:28.991Z,37.20
2022-12-01T16:30:56.120Z,34.23
2022-12-01T16:33:26.230Z,38.73
2022-12-01T16:35:53.705Z,38.93
2022-12-01T16:38:26.761Z,40.40
2022-12-01T16:40:59.272Z,36.33
2022-12-01T16:43:28.631Z,43.30
2022-12-01T16:46:03.253Z,40.27
2022-12-01T16:48:31.254Z,52.93
2022-12-01T16:51:03.125Z,41.00
2022-12-01T16:53:30.068Z,47.37
2022-12-01T16:56:00.165Z,43.00
2022-12-01T16:58:27.839Z,43.10
2022-12-01T17:00:55.142Z,48.50
2022-12-01T17:03:27.534Z,42.40
2022-12-01T17:05:55.183Z,53.07
2022-12-01T17:08:22.609Z,73.90
2022-12-01T17:10:50.815Z,49.60
2022-12-01T17:13:19.395Z,48.80
2022-12-01T17:15:49.376Z,42.20
2022-12-01T17:18:19.053Z,48.07
2022-12-01T17:20:56.874Z,44.70
2022-12-01T17:23:23.840Z,40.47
2022-12-01T17:25:50.822Z,37.23
2022-12-01T17:28:17.941Z,41.13
2022-12-01T17:30:45.055Z,50.77
2022-12-01T17:33:19.484Z,43.77
2022-12-01T17:35:46.408Z,51.07
2022-12-01T17:38:13.294Z,43.10
2022-12-01T17:40:40.212Z,41.40
2022-12-01T17:43:08.539Z,45.57
2022-12-01T17:45:41.938Z,34.90
2022-12-01T17:48:09.126Z,35.73
2022-12-01T17:50:36.013Z,36.20
2022-12-01T17:53:02.925Z,39.47
2022-12-01T17:55:29.843Z,49.53
2022-12-01T17:57:58.780Z,49.63
2022-12-01T18:00:25.775Z,46.97
2022-12-01T18:02:53.211Z,56.60
2022-12-01T18:05:20.321Z,71.13
2022-12-01T18:07:47.596Z,62.13
2022-12-01T18:10:14.509Z,48.70
2022-12-01T18:12:41.397Z,47.23
2022-12-01T18:15:09.097Z,46.47
2022-12-01T18:17:36.177Z,54.03
2022-12-01T18:20:03.259Z,56.87
2022-12-01T18:22:30.131Z,52.53
2022-12-01T18:24:58.731Z,48.57
2022-12-01T18:27:25.642Z,53.83
2022-12-01T18:29:52.544Z,52.57
2022-12-01T18:32:19.484Z,50.07
2022-12-01T18:34:46.424Z,43.13
2022-12-01T18:37:13.334Z,49.87
2022-12-01T18:39:40.343Z,48.30
2022-12-01T18:42:07.301Z,52.33
2022-12-01T18:44:34.236Z,39.43
2022-12-01T18:47:03.745Z,49.43
2022-12-01T18:49:30.833Z,46.63
2022-12-01T18:51:59.593Z,37.53
2022-12-01T18:54:27.225Z,35.80
2022-12-01T18:56:55.110Z,41.87
2022-12-01T18:59:22.079Z,41.07
2022-12-01T19:01:49.596Z,37.13
2022-12-01T19:04:17.040Z,41.77
2022-12-01T19:06:45.622Z,46.80
2022-12-01T19:09:14.410Z,41.27
2022-12-01T19:11:42.277Z,64.20
2022-12-01T19:14:16.736Z,51.63
2022-12-01T19:16:45.521Z,45.27
2022-12-01T19:19:12.657Z,49.63
2022-12-01T19:21:39.618Z,58.83
2022-12-01T19:24:06.978Z,54.80
2022-12-01T19:26:33.949Z,55.27
2022-12-01T19:29:00.895Z,59.77
2022-12-01T19:31:27.866Z,56.60
2022-12-01T19:33:55.347Z,52.73
2022-12-01T19:36:27.416Z,57.67
2022-12-01T19:38:57.816Z,51.70
2022-12-01T19:41:25.655Z,55.97
2022-12-01T19:43:53.623Z,51.27
2022-12-01T19:46:23.506Z,46.67
2022-12-01T19:49:02.311Z,47.53
2022-12-01T19:51:36.910Z,47.80
2022-12-01T19:54:07.408Z,42.03
2022-12-01T19:56:34.459Z,42.23
2022-12-01T19:59:01.374Z,39.30
2022-12-01T20:01:28.912Z,31.90
2022-12-01T20:03:55.948Z,31.00
2022-12-01T20:06:29.713Z,32.00
2022-12-01T20:08:59.705Z,29.10
2022-12-01T20:11:29.794Z,36.73
2022-12-01T20:13:56.806Z,36.90
2022-12-01T20:16:26.386Z,37.03
2022-12-01T20:18:54.838Z,35.73
2022-12-01T20:21:28.508Z,35.30
2022-12-01T20:24:02.064Z,42.70
2022-12-01T20:26:39.799Z,33.60
2022-12-01T20:29:14.822Z,26.67
2022-12-01T20:31:43.078Z,30.37
2022-12-01T20:34:25.568Z,34.97
2022-12-01T20:36:54.069Z,35.57
2022-12-01T20:39:21.450Z,41.93
2022-12-01T20:41:49.090Z,38.60
2022-12-01T20:44:17.368Z,39.40
2022-12-01T20:46:45.833Z,41.67
2022-12-01T20:49:13.819Z,33.50
2022-12-01T20:51:40.765Z,38.97
2022-12-01T20:54:28.689Z,32.80
2022-12-01T20:56:56.872Z,37.27
2022-12-01T20:59:24.060Z,35.87
2022-12-01T21:01:50.939Z,36.60
2022-12-01T21:04:17.831Z,29.07
2022-12-01T21:06:44.768Z,27.67
2022-12-01T21:09:13.134Z,36.33
2022-12-01T21:12:07.101Z,35.03
2022-12-01T21:14:49.275Z,40.37
2022-12-01T21:17:34.401Z,38.23
2022-12-01T21:20:21.920Z,34.63
2022-12-01T21:22:53.736Z,31.23
2022-12-01T21:25:24.549Z,29.00
2022-12-01T21:27:51.897Z,36.30
2022-12-01T21:30:24.936Z,36.17
2022-12-01T21:32:52.952Z,35.83
2022-12-01T21:35:22.593Z,33.33
2022-12-01T21:37:53.300Z,25.87
2022-12-01T21:40:25.677Z,35.23
2022-12-01T21:42:52.583Z,28.60
2022-12-01T21:45:27.136Z,35.80
2022-12-01T21:48:01.555Z,33.13
2022-12-01T21:50:28.541Z,39.10
2022-12-01T21:52:55.445Z,38.77
2022-12-01T21:55:26.050Z,36.70
2022-12-01T21:57:54.422Z,31.60
2022-12-01T22:00:35.762Z,31.23
2022-12-01T22:03:08.668Z,31.97
2022-12-01T22:05:40.773Z,28.63
2022-12-01T22:08:13.668Z,38.47
2022-12-01T22:11:08.604Z,30.70
2022-12-01T22:13:54.399Z,34.23
2022-12-01T22:16:38.059Z,34.93
2022-12-01T22:19:17.118Z,32.97
2022-12-01T22:21:57.661Z,31.03
2022-12-01T22:24:46.998Z,32.63
2022-12-01T22:27:33.085Z,31.70
2022-12-01T22:30:18.668Z,31.10
2022-12-01T22:33:05.984Z,38.30
2022-12-01T22:35:44.013Z,31.97
2022-12-01T22:38:36.682Z,29.03
2022-12-01T22:41:17.190Z,31.37
2022-12-01T22:43:50.847Z,30.43
2022-12-01T22:46:36.185Z,35.03
2022-12-01T22:49:19.392Z,31.60
2022-12-01T22:51:52.317Z,27.93
2022-12-01T22:54:30.479Z,28.93
2022-12-01T22:57:05.077Z,31.40
2022-12-01T22:59:35.918Z,30.97
2022-12-01T23:02:19.318Z,28.87
2022-12-01T23:04:48.315Z,33.67
2022-12-01T23:07:42.208Z,32.80
2022-12-01T23:10:30.438Z,33.10
2022-12-01T23:13:12.364Z,30.13
2022-12-01T23:15:44.488Z,31.23
2022-12-01T23:18:27.054Z,33.40
2022-12-01T23:20:59.350Z,26.27
2022-12-01T23:23:34.123Z,29.90
2022-12-01T23:26:04.260Z,30.70
2022-12-01T23:28:31.288Z,37.10
2022-12-01T23:30:59.799Z,40.40
2022-12-01T23:33:34.614Z,36.20
2022-12-01T23:36:14.625Z,37.03
2022-12-01T23:38:44.492Z,40.20
2022-12-01T23:41:17.041Z,46.37
2022-12-01T23:43:45.976Z,36.40
2022-12-01T23:46:23.736Z,28.50
2022-12-01T23:49:03.010Z,32.87
2022-12-01T23:51:44.361Z,36.10
2022-12-01T23:54:21.088Z,33.37
2022-12-01T23:56:56.163Z,50.93
2022-12-01T23:59:23.794Z,48.00
